Terminal Aerodrome Forecast
Issued by NWS Goodland, KS

Home | Current Version | Previous Version | Text Only | Print | Product List | Glossary On
Versions: 1 2 3 4 5 6 7 8 9 10 11 12 13 14 15 16 17 18 19 20 21
000
FTUS43 KGLD 030535
TAFGLD
TAF
KGLD 030535Z 0306/0406 20020G28KT P6SM SCT006 BKN150 WS020/23060KT
     FM030900 27015G24KT P6SM SCT020 BKN200
     FM031200 31018G25KT P6SM SCT030
     FM031400 35020G28KT P6SM OVC015
     FM031900 01015G22KT P6SM BKN035
     FM032300 03009KT P6SM BKN060
     FM040300 06008KT P6SM VCSH OVC025=

USA.gov is the U.S. government's official web portal to all federal, state and local government web resources and services.